Du har inga inställningar för hoppväder.nu

Hoppväder.nu

Senast uppdaterat 10:29

UTC-tid

2021-06-16 kl. 08:29


Sol och måne

Solen går upp 3:28 och går ner 23:29 (beräknade cirkatider)
Nästa fullmåne blir om 8 dagar (2021-06-24)

METAR

ESSD (Borlänge)
(9 minuter sedan)
ESSD 160820Z 15005KT 110V200 CAVOK 14/06 Q1015=



ESOE (Örebro)
(9 minuter sedan)
ESOE 160820Z 22009KT CAVOK 17/10 Q1017=



ESOW (Västerås)
(9 minuter sedan)
ESOW 160820Z 18007KT 140V220 CAVOK 16/10 Q1017=



ESOK (Karlstad)
(9 minuter sedan)
ESOK 160820Z 19009KT CAVOK 16/11 Q1016=






TAF

ESSD (Borlänge)
(-1 minuter sedan)
ESSD 160830Z 1609/1616 12007KT CAVOK BECMG 1609/1610 22012KT=



ESOE (Örebro)
(179 minuter sedan)
ESOE 160530Z 1606/1608 23010KT CAVOK=



ESOW (Västerås)
(-1 minuter sedan)
ESOW 160830Z 1609/1617 20008KT CAVOK=



ESOK (Karlstad)
(-1 minuter sedan)
ESOK 160830Z 1609/1617 20009KT CAVOK=





Kodnycklar till TAF och METAR






LHP

(Borlänge är område se34c i Delområde 1)

Översikt

ÖVERSIKT FÖR OMRÅDE se3 UTFÄRDAD 160742

GÄLLANDE DEN 16 JUNI 2021 MELLAN 08 OCH 16 UTC


Väderöversikt

En högtrycksrygg täcker södra Sverige.

Sikt under 5 kilometer eller molnbas under 1000 fot
Väntas inte förekomma under perioden.

Måttlig eller svår isbildning
Väntas inte förekomma under perioden

Måttlig eller svår turbulens
Väntas inte förekomma under perioden

Delområde 1

PROGNOS FÖR OMRÅDE se34 UTFÄRDAD 160742
GÄLLANDE DEN 16 JUNI 2021 MELLAN 08 OCH 16 UTC

Måttlig eller svår turbulens
08-16UTC: I hela området: Väntas inte förekomma under perioden

Måttlig eller svår isbildning
08-16UTC: I hela området: Väntas inte förekomma under perioden

Sikt/Väder/Moln
08-16UTC: I hela området: Sikt >8km. Molnbas >2000ft.

Molnöversida
08-12UTC: Område se34b,se34f,se34e,se34d: Molnöversida > FL125.

08-14UTC: Område se34a,se34c: Molnöversida > FL125.

12-16UTC: Område se34b,se34f,se34e,se34d: Ingen prognos

14-16UTC: Område se34a,se34c: Ingen prognos


CB/TCU Moln
08-16UTC: I hela området: Väntas inte förekomma under perioden

Nollgradersisoterm
08-10UTC: Noll grader FL070 - > FL125.
10-12UTC: Noll grader FL080 - > FL125.
12-16UTC: Noll grader FL100 - > FL125.

Vind vid marken
08-10UTC: Område se34c: S/2-9 knop, byar upp till 20 knop.
Område se34b: SO/2-10 knop, byar upp till 17 knop.
Område se34e: S-SV/4-8 knop, byar upp till 19 knop.
Område se34f: S-SV/4-10 knop, byar upp till 19 knop.
Område se34d: S-SV/4-9 knop, byar upp till 19 knop.
Område se34a: O/1-15 knop, byar upp till 21 knop.

10-12UTC: Område se34a: NO-O/2-18 knop, byar upp till 24 knop.
Område se34d: SV/5-9 knop, byar upp till 21 knop.
Område se34f: SV/4-9 knop, byar upp till 20 knop.
Område se34b: SO-S/1-15 knop, byar upp till 26 knop.
Område se34e: SV/5-10 knop, byar upp till 20 knop.
Område se34c: S-SV/2-9 knop, byar upp till 23 knop.

12-14UTC: Område se34e: SV/4-9 knop, byar upp till 21 knop.
Område se34b: SO-S/0-19 knop, byar upp till 29 knop.
Område se34a: O/4-16 knop, byar upp till 22 knop.
Område se34d: SV/6-10 knop, byar upp till 21 knop.
Område se34c: S-SV/0-12 knop, byar upp till 24 knop.
Område se34f: SV/5-9 knop, byar upp till 19 knop.

14-16UTC: Område se34d: SV/6-11 knop, byar upp till 21 knop.
Område se34b: S/1-17 knop, byar upp till 26 knop.
Område se34c: SV/2-12 knop, byar upp till 24 knop.
Område se34a: O/2-18 knop, byar upp till 23 knop.
Område se34e: SV/3-11 knop, byar upp till 20 knop.
Område se34f: SV/5-9 knop, byar upp till 20 knop.


Genomsnittlig vind och temperatur för området
2000ft:
08-10UTC: 200/12kt +10.
10-12UTC: 220/11kt +12.
12-14UTC: 220/12kt +13.
14-16UTC: 230/13kt +14.

FL50:
08-10UTC: 240/17kt +4.
10-12UTC: 230/13kt +4.
12-14UTC: 240/14kt +5.
14-16UTC: 240/14kt +6.

FL100:
08-10UTC: 260/27kt -1.
10-12UTC: 270/29kt +0.
12-14UTC: 280/30kt +0.
14-16UTC: 280/31kt +1.

Lägsta QNH
1013 hPa.

OBS! endast utbredd måttlig eller svår isbildning och turbulens prognostiseras i LLF.
Avsaknad av isbildning och turbulens i prognosen utesluter inte förekomst av lätt isbildning och turbulens.
För indikation på lätt isbildning, var vänlig kontrollera om prognosen för molntopp ligger högre än nollgradersisotermen.
Förekomst av TCU eller CB medför alltid en risk för måttlig eller svår isbildning och turbulens även om det inte framgår explicit av prognosen.







Spotting

Hur fungerar spotthjälpen och Vindkartan?

Markvind är ca 1-5 m/s med byar på 10 m/s.
Vind på 600 m ca 6 m/s.
Vind på 1500 m ca 9 m/s.
Vind på 3000 m ca 14 m/s.
Rudolf-David flyger ca 27 m/s över marken på finalen.
Du driver ca 625 m bakåt i frifall. (833 m)
Lämplig spot är 12 sekunder eller 327 m efter gropen.
(20 s eller 545 m)
För små grupper eller ensamhoppare bör man vänta 6-8 sekunder mellan grupperna.
För större grupper bör man vänta 11-13 sekunder mellan grupperna.


Vindkartan

Senast uppdaterad 10:29




All data kommer från LFV.se